createdAt,value
2019-01-05T00:01:52.140Z,-6.62
2019-01-05T00:04:40.599Z,-6.61
2019-01-05T00:07:36.822Z,-6.59
2019-01-05T00:10:42.361Z,-6.65
2019-01-05T00:13:28.124Z,-6.58
2019-01-05T00:16:09.682Z,-6.59
2019-01-05T00:19:12.200Z,-6.67
2019-01-05T00:21:58.186Z,-6.68
2019-01-05T00:24:45.380Z,-6.64
2019-01-05T00:27:31.217Z,-6.59
2019-01-05T00:30:17.202Z,-6.58
2019-01-05T00:33:03.702Z,-6.63
2019-01-05T00:36:00.509Z,-6.57
2019-01-05T00:38:47.074Z,-6.64
2019-01-05T00:41:43.369Z,-6.71
2019-01-05T00:44:33.245Z,-6.70
2019-01-05T00:47:24.517Z,-6.68
2019-01-05T00:50:10.656Z,-6.73
2019-01-05T00:52:56.707Z,-6.84
2019-01-05T00:55:50.164Z,-6.90
2019-01-05T00:58:32.952Z,-6.80
2019-01-05T01:01:23.095Z,-6.73
2019-01-05T01:04:28.763Z,-6.70
2019-01-05T01:07:27.927Z,-6.65
2019-01-05T01:10:15.300Z,-6.73
2019-01-05T01:13:01.115Z,-6.73
2019-01-05T01:15:47.325Z,-6.64
2019-01-05T01:18:24.909Z,-6.68
2019-01-05T01:21:12.341Z,-6.69
2019-01-05T01:24:18.512Z,-6.73
2019-01-05T01:27:04.351Z,-6.62
2019-01-05T01:29:57.835Z,-6.64
2019-01-05T01:32:44.013Z,-6.57
2019-01-05T01:35:30.116Z,-6.64
2019-01-05T01:38:46.025Z,-6.73
2019-01-05T01:41:42.608Z,-6.64
2019-01-05T01:44:44.665Z,-6.67
2019-01-05T01:47:31.583Z,-6.68
2019-01-05T01:50:17.471Z,-6.69
2019-01-05T01:53:04.793Z,-6.66
2019-01-05T01:55:59.104Z,-6.63
2019-01-05T01:59:06.509Z,-6.74
2019-01-05T02:01:55.435Z,-6.70
2019-01-05T02:04:48.922Z,-6.73
2019-01-05T02:07:37.442Z,-6.79
2019-01-05T02:10:23.286Z,-6.70
2019-01-05T02:13:14.217Z,-6.74
2019-01-05T02:16:00.795Z,-6.75
2019-01-05T02:18:58.510Z,-6.76
2019-01-05T02:22:43.528Z,-6.81
2019-01-05T02:26:29.300Z,-6.78
2019-01-05T02:29:58.314Z,-6.76
2019-01-05T02:33:43.381Z,-6.74
2019-01-05T02:37:32.190Z,-6.80
2019-01-05T02:40:48.269Z,-6.81
2019-01-05T02:44:05.483Z,-6.89
2019-01-05T02:47:28.866Z,-6.89
2019-01-05T02:50:32.487Z,-6.94
2019-01-05T02:53:57.492Z,-6.97
2019-01-05T02:56:56.280Z,-7.03
2019-01-05T03:00:18.975Z,-6.99
2019-01-05T03:03:45.573Z,-6.97
2019-01-05T03:07:38.409Z,-6.93
2019-01-05T03:11:19.721Z,-6.91
2019-01-05T03:14:43.676Z,-6.87
2019-01-05T03:17:51.679Z,-6.96
2019-01-05T03:21:08.011Z,-6.87
2019-01-05T03:24:34.877Z,-6.91
2019-01-05T03:28:17.649Z,-6.97
2019-01-05T03:31:39.975Z,-6.93
2019-01-05T03:35:01.714Z,-6.85
2019-01-05T03:38:17.703Z,-6.92
2019-01-05T03:41:24.206Z,-6.85
2019-01-05T03:45:23.173Z,-6.90
2019-01-05T03:48:57.211Z,-6.94
2019-01-05T03:52:23.800Z,-6.90
2019-01-05T03:55:47.515Z,-6.88
2019-01-05T03:59:13.645Z,-6.89
2019-01-05T04:02:49.855Z,-6.90
2019-01-05T04:06:40.829Z,-6.84
2019-01-05T04:10:18.678Z,-6.91
2019-01-05T04:13:58.023Z,-6.77
2019-01-05T04:17:18.397Z,-6.96
2019-01-05T04:21:26.565Z,-6.94
2019-01-05T04:25:06.045Z,-7.03
2019-01-05T04:28:20.478Z,-7.04
2019-01-05T04:31:48.427Z,-6.99
2019-01-05T04:34:59.245Z,-6.95
2019-01-05T04:38:36.898Z,-7.07
2019-01-05T04:42:11.433Z,-7.24
2019-01-05T04:45:34.086Z,-7.12
2019-01-05T04:49:27.486Z,-7.19
2019-01-05T04:53:04.301Z,-7.19
2019-01-05T04:56:44.179Z,-7.27
2019-01-05T04:59:55.698Z,-7.33
2019-01-05T05:03:48.231Z,-7.39
2019-01-05T05:07:07.111Z,-7.44
2019-01-05T05:10:37.872Z,-7.49
2019-01-05T05:14:21.194Z,-7.50
2019-01-05T05:17:54.031Z,-7.50
2019-01-05T05:21:24.385Z,-7.40
2019-01-05T05:25:00.239Z,-7.55
2019-01-05T05:28:46.043Z,-7.50
2019-01-05T05:32:04.068Z,-7.59
2019-01-05T05:35:47.907Z,-7.58
2019-01-05T05:39:24.562Z,-7.65
2019-01-05T05:43:04.787Z,-7.65
2019-01-05T05:46:33.361Z,-7.66
2019-01-05T05:50:09.726Z,-7.61
2019-01-05T05:53:21.321Z,-7.57
2019-01-05T05:56:45.091Z,-7.59
2019-01-05T06:00:22.657Z,-7.55
2019-01-05T06:04:18.261Z,-7.61
2019-01-05T06:07:54.546Z,-7.65
2019-01-05T06:11:26.869Z,-7.65
2019-01-05T06:15:09.679Z,-7.77
2019-01-05T06:18:46.668Z,-7.54
2019-01-05T06:22:13.783Z,-7.51
2019-01-05T06:25:38.508Z,-7.52
2019-01-05T06:29:16.307Z,-7.60
2019-01-05T06:32:42.908Z,-7.46
2019-01-05T06:35:57.397Z,-7.33
2019-01-05T06:39:37.917Z,-7.38
2019-01-05T06:43:09.716Z,-7.40
2019-01-05T06:46:53.100Z,-7.46
2019-01-05T06:50:20.146Z,-7.47
2019-01-05T06:53:38.143Z,-7.33
2019-01-05T06:57:10.237Z,-7.23
2019-01-05T07:00:30.187Z,-7.17
2019-01-05T07:03:55.398Z,-6.73
2019-01-05T07:07:35.066Z,-6.45
2019-01-05T07:11:27.814Z,-6.44
2019-01-05T07:14:54.343Z,-6.32
2019-01-05T07:18:27.168Z,-6.26
2019-01-05T07:21:56.511Z,-6.04
2019-01-05T07:25:48.630Z,-5.72
2019-01-05T07:29:11.092Z,-5.60
2019-01-05T07:32:31.838Z,-5.01
2019-01-05T07:36:06.532Z,-4.19
2019-01-05T07:39:44.421Z,-4.42
2019-01-05T07:43:04.133Z,-3.69
2019-01-05T07:46:48.482Z,-3.78
2019-01-05T07:50:27.411Z,-3.88
2019-01-05T07:54:09.020Z,-5.06
2019-01-05T07:57:54.535Z,-5.41
2019-01-05T08:01:53.419Z,-5.48
2019-01-05T08:05:08.520Z,-4.85
2019-01-05T08:08:58.008Z,-4.42
2019-01-05T08:12:19.186Z,-4.63
2019-01-05T08:16:09.468Z,-4.69
2019-01-05T08:19:39.157Z,-4.40
2019-01-05T08:23:05.614Z,-3.59
2019-01-05T08:26:33.033Z,-4.56
2019-01-05T08:29:53.358Z,-4.57
2019-01-05T08:33:32.805Z,-4.82
2019-01-05T08:36:57.679Z,-5.03
2019-01-05T08:40:19.235Z,-4.60
2019-01-05T08:43:59.174Z,-4.60
2019-01-05T08:47:38.415Z,-4.64
2019-01-05T08:51:11.240Z,-3.95
2019-01-05T08:54:53.014Z,-4.17
2019-01-05T08:58:16.532Z,-4.48
2019-01-05T09:01:44.256Z,-4.10
2019-01-05T09:05:16.580Z,-4.45
2019-01-05T09:08:57.981Z,-4.11
2019-01-05T09:12:25.474Z,-3.60
2019-01-05T09:16:08.340Z,-3.90
2019-01-05T09:19:34.606Z,-3.78
2019-01-05T09:23:02.133Z,-4.14
2019-01-05T09:26:40.612Z,-3.60
2019-01-05T09:30:17.572Z,-3.84
2019-01-05T09:33:58.330Z,-4.14
2019-01-05T09:37:30.997Z,-3.79
2019-01-05T09:41:03.443Z,-3.93
2019-01-05T09:44:40.542Z,-4.07
2019-01-05T09:48:03.358Z,-3.82
2019-01-05T09:51:28.783Z,-3.95
2019-01-05T09:54:54.779Z,-3.95
2019-01-05T09:58:35.477Z,-3.82
2019-01-05T10:02:34.162Z,-3.88
2019-01-05T10:06:04.268Z,-4.15
2019-01-05T10:09:34.821Z,-3.97
2019-01-05T10:13:08.200Z,-4.02
2019-01-05T10:17:01.152Z,-4.36
2019-01-05T10:20:42.692Z,-4.18
2019-01-05T10:24:07.738Z,-4.03
2019-01-05T10:27:13.696Z,-4.36
2019-01-05T10:30:47.541Z,-4.20
2019-01-05T10:34:17.434Z,-4.14
2019-01-05T10:37:49.577Z,-3.89
2019-01-05T10:41:19.125Z,-3.65
2019-01-05T10:44:45.959Z,-3.51
2019-01-05T10:47:58.641Z,-3.54
2019-01-05T10:51:34.154Z,-3.64
2019-01-05T10:55:07.635Z,-3.92
2019-01-05T10:58:57.979Z,-3.80
2019-01-05T11:02:24.247Z,-3.40
2019-01-05T11:05:40.655Z,-3.76
2019-01-05T11:09:14.005Z,-3.54
2019-01-05T11:13:12.545Z,-3.10
2019-01-05T11:16:32.190Z,-2.88
2019-01-05T11:19:52.374Z,-2.93
2019-01-05T11:23:37.832Z,-3.25
2019-01-05T11:27:03.867Z,-3.67
2019-01-05T11:30:46.623Z,-3.76
2019-01-05T11:34:30.129Z,-3.71
2019-01-05T11:38:01.073Z,-3.70
2019-01-05T11:41:35.428Z,-3.67
2019-01-05T11:45:23.491Z,-3.68
2019-01-05T11:49:02.538Z,-3.86
2019-01-05T11:52:22.275Z,-3.90
2019-01-05T11:55:47.224Z,-3.84
2019-01-05T11:59:11.719Z,-3.87
2019-01-05T12:02:36.252Z,-4.08
2019-01-05T12:06:13.473Z,-3.95
2019-01-05T12:09:59.450Z,-4.06
2019-01-05T12:13:15.220Z,-3.85
2019-01-05T12:16:43.350Z,-3.68
2019-01-05T12:20:15.252Z,-3.57
2019-01-05T12:23:41.547Z,-3.88
2019-01-05T12:27:21.500Z,-4.22
2019-01-05T12:31:09.597Z,-3.96
2019-01-05T12:34:43.017Z,-3.46
2019-01-05T12:38:12.533Z,-3.46
2019-01-05T12:41:26.995Z,-3.39
2019-01-05T12:45:09.924Z,-3.57
2019-01-05T12:48:46.725Z,-3.73
2019-01-05T12:52:35.490Z,-3.98
2019-01-05T12:56:21.349Z,-3.79
2019-01-05T12:59:59.961Z,-3.74
2019-01-05T13:03:25.718Z,-3.86
2019-01-05T13:06:57.497Z,-3.78
2019-01-05T13:10:12.322Z,-3.58
2019-01-05T13:13:20.109Z,-3.66
2019-01-05T13:17:05.713Z,-3.64
2019-01-05T13:20:15.553Z,-3.80
2019-01-05T13:23:34.145Z,-4.02
2019-01-05T13:26:54.790Z,-4.06
2019-01-05T13:30:13.011Z,-4.17
2019-01-05T13:33:28.541Z,-4.34
2019-01-05T13:37:16.523Z,-4.27
2019-01-05T13:40:54.027Z,-4.32
2019-01-05T13:44:36.368Z,-4.62
2019-01-05T13:48:16.498Z,-4.69
2019-01-05T13:51:33.634Z,-4.94
2019-01-05T13:54:31.252Z,-5.12
2019-01-05T13:57:21.139Z,-5.28
2019-01-05T14:00:07.074Z,-5.29
2019-01-05T14:02:54.238Z,-5.39
2019-01-05T14:05:39.857Z,-5.51
2019-01-05T14:08:41.592Z,-5.58
2019-01-05T14:11:40.854Z,-5.70
2019-01-05T14:14:28.198Z,-5.72
2019-01-05T14:17:15.396Z,-5.95
2019-01-05T14:20:01.093Z,-6.02
2019-01-05T14:22:46.440Z,-6.05
2019-01-05T14:25:36.798Z,-6.15
2019-01-05T14:28:22.421Z,-6.32
2019-01-05T14:31:12.220Z,-6.34
2019-01-05T14:34:02.287Z,-6.42
2019-01-05T14:36:52.633Z,-6.53
2019-01-05T14:39:38.409Z,-6.66
2019-01-05T14:42:24.404Z,-6.78
2019-01-05T14:45:16.451Z,-6.92
2019-01-05T14:48:02.478Z,-7.00
2019-01-05T14:50:55.655Z,-7.18
2019-01-05T14:53:42.027Z,-7.29
2019-01-05T14:56:44.737Z,-7.28
2019-01-05T14:59:30.669Z,-7.34
2019-01-05T15:02:17.263Z,-7.46
2019-01-05T15:05:16.542Z,-7.62
2019-01-05T15:08:14.870Z,-7.72
2019-01-05T15:11:00.616Z,-7.77
2019-01-05T15:13:45.534Z,-7.92
2019-01-05T15:16:33.070Z,-7.96
2019-01-05T15:19:32.175Z,-8.09
2019-01-05T15:22:16.498Z,-8.09
2019-01-05T15:25:02.423Z,-8.20
2019-01-05T15:27:48.694Z,-8.37
2019-01-05T15:30:38.376Z,-8.36
2019-01-05T15:33:40.308Z,-8.50
2019-01-05T15:36:42.419Z,-8.55
2019-01-05T15:39:28.078Z,-8.61
2019-01-05T15:42:14.217Z,-8.70
2019-01-05T15:45:00.523Z,-8.77
2019-01-05T15:47:47.763Z,-8.65
2019-01-05T15:50:37.713Z,-8.78
2019-01-05T15:53:23.688Z,-8.77
2019-01-05T15:56:28.992Z,-8.88
2019-01-05T15:59:18.741Z,-8.77
2019-01-05T16:02:11.634Z,-8.81
2019-01-05T16:04:58.956Z,-8.88
2019-01-05T16:07:55.203Z,-8.87
2019-01-05T16:10:51.499Z,-8.92
2019-01-05T16:13:48.102Z,-8.96
2019-01-05T16:16:44.586Z,-9.07
2019-01-05T16:19:43.933Z,-9.09
2019-01-05T16:22:31.188Z,-9.08
2019-01-05T16:25:16.984Z,-9.05
2019-01-05T16:28:16.403Z,-9.25
2019-01-05T16:31:00.795Z,-9.25
2019-01-05T16:33:57.134Z,-9.33
2019-01-05T16:36:43.090Z,-9.13
2019-01-05T16:39:29.284Z,-9.18
2019-01-05T16:42:16.660Z,-9.20
2019-01-05T16:45:22.020Z,-9.13
2019-01-05T16:48:07.934Z,-9.07
2019-01-05T16:51:04.165Z,-9.04
2019-01-05T16:54:00.422Z,-9.13
2019-01-05T16:56:46.070Z,-9.08
2019-01-05T16:59:31.486Z,-9.21
2019-01-05T17:02:17.468Z,-9.21
2019-01-05T17:05:08.635Z,-9.08
2019-01-05T17:08:04.381Z,-9.07
2019-01-05T17:11:01.051Z,-9.06
2019-01-05T17:13:47.422Z,-9.13
2019-01-05T17:16:33.484Z,-9.22
2019-01-05T17:19:21.193Z,-9.12
2019-01-05T17:22:24.491Z,-9.08
2019-01-05T17:25:14.145Z,-9.10
2019-01-05T17:27:50.604Z,-9.17
2019-01-05T17:30:47.448Z,-9.30
2019-01-05T17:33:40.947Z,-9.31
2019-01-05T17:36:27.456Z,-9.26
2019-01-05T17:39:20.718Z,-9.38
2019-01-05T17:42:17.238Z,-9.39
2019-01-05T17:45:06.505Z,-9.51
2019-01-05T17:47:52.528Z,-9.57
2019-01-05T17:50:38.606Z,-9.63
2019-01-05T17:53:24.324Z,-9.73
2019-01-05T17:56:04.780Z,-9.80
2019-01-05T17:58:47.530Z,-9.77
2019-01-05T18:01:37.709Z,-9.72
2019-01-05T18:04:24.285Z,-9.68
2019-01-05T18:07:14.974Z,-9.70
2019-01-05T18:10:08.401Z,-9.69
2019-01-05T18:13:11.106Z,-9.77
2019-01-05T18:15:57.129Z,-9.91
2019-01-05T18:18:50.397Z,-10.11
2019-01-05T18:21:53.114Z,-10.27
2019-01-05T18:24:35.890Z,-10.26
2019-01-05T18:27:32.363Z,-10.19
2019-01-05T18:30:20.483Z,-10.11
2019-01-05T18:33:03.110Z,-9.99
2019-01-05T18:35:48.879Z,-9.86
2019-01-05T18:38:36.245Z,-9.93
2019-01-05T18:41:38.780Z,-9.96
2019-01-05T18:44:26.239Z,-9.98
2019-01-05T18:47:13.529Z,-9.99
2019-01-05T18:49:51.354Z,-10.20
2019-01-05T18:52:41.679Z,-10.17
2019-01-05T18:55:27.792Z,-10.01
2019-01-05T18:58:18.082Z,-9.95
2019-01-05T19:01:04.082Z,-9.97
2019-01-05T19:04:06.605Z,-10.11
2019-01-05T19:06:52.832Z,-10.32
2019-01-05T19:09:49.364Z,-10.27
2019-01-05T19:12:45.800Z,-10.11
2019-01-05T19:15:39.333Z,-10.04
2019-01-05T19:18:26.966Z,-10.02
2019-01-05T19:21:27.636Z,-9.93
2019-01-05T19:24:22.443Z,-9.93
2019-01-05T19:27:18.978Z,-9.83
2019-01-05T19:30:09.196Z,-9.91
2019-01-05T19:33:02.427Z,-9.91
2019-01-05T19:35:52.810Z,-9.91
2019-01-05T19:38:48.451Z,-9.96
2019-01-05T19:41:33.943Z,-9.98
2019-01-05T19:44:20.150Z,-10.09
2019-01-05T19:47:06.090Z,-10.08
2019-01-05T19:50:11.770Z,-10.15
2019-01-05T19:52:57.921Z,-10.15
2019-01-05T19:55:44.686Z,-10.12
2019-01-05T19:58:37.772Z,-10.12
2019-01-05T20:01:40.459Z,-10.09
2019-01-05T20:04:36.783Z,-10.11
2019-01-05T20:07:39.135Z,-10.08
2019-01-05T20:10:45.092Z,-10.25
2019-01-05T20:13:31.169Z,-10.18
2019-01-05T20:16:33.564Z,-10.18
2019-01-05T20:19:35.648Z,-10.25
2019-01-05T20:22:21.782Z,-10.41
2019-01-05T20:25:07.819Z,-10.19
2019-01-05T20:28:04.130Z,-10.25
2019-01-05T20:30:54.048Z,-10.35
2019-01-05T20:33:59.673Z,-10.34
2019-01-05T20:36:58.707Z,-10.17
2019-01-05T20:39:44.807Z,-10.36
2019-01-05T20:42:32.002Z,-10.19
2019-01-05T20:45:32.161Z,-10.23
2019-01-05T20:48:19.398Z,-10.26
2019-01-05T20:51:05.180Z,-10.31
2019-01-05T20:54:10.368Z,-10.27
2019-01-05T20:56:56.328Z,-10.19
2019-01-05T20:59:43.595Z,-10.15
2019-01-05T21:02:32.404Z,-10.17
2019-01-05T21:05:18.907Z,-10.27
2019-01-05T21:08:04.905Z,-10.04
2019-01-05T21:10:58.216Z,-9.91
2019-01-05T21:13:51.055Z,-9.84
2019-01-05T21:16:41.231Z,-9.63
2019-01-05T21:19:27.112Z,-9.65
2019-01-05T21:22:13.359Z,-9.52
2019-01-05T21:25:06.145Z,-9.67
2019-01-05T21:27:52.003Z,-9.71
2019-01-05T21:30:36.015Z,-9.66
2019-01-05T21:33:25.915Z,-9.83
2019-01-05T21:36:10.520Z,-9.98
2019-01-05T21:39:00.148Z,-9.88
2019-01-05T21:41:41.307Z,-9.72
2019-01-05T21:44:27.222Z,-9.69
2019-01-05T21:47:14.418Z,-9.68
2019-01-05T21:50:16.701Z,-9.75
2019-01-05T21:53:11.584Z,-9.77
2019-01-05T21:56:01.792Z,-9.58
2019-01-05T21:59:00.184Z,-9.63
2019-01-05T22:01:46.064Z,-9.55
2019-01-05T22:04:32.204Z,-9.47
2019-01-05T22:07:19.278Z,-9.46
2019-01-05T22:10:05.981Z,-9.54
2019-01-05T22:12:55.768Z,-9.55
2019-01-05T22:15:45.745Z,-9.49
2019-01-05T22:18:32.956Z,-9.52
2019-01-05T22:21:35.545Z,-9.56
2019-01-05T22:24:22.612Z,-9.49
2019-01-05T22:27:10.895Z,-9.46
2019-01-05T22:30:03.442Z,-9.33
2019-01-05T22:32:50.628Z,-9.28
2019-01-05T22:35:32.660Z,-9.27
2019-01-05T22:38:19.768Z,-9.29
2019-01-05T22:41:05.443Z,-9.23
2019-01-05T22:43:51.575Z,-9.07
2019-01-05T22:46:38.727Z,-9.16
2019-01-05T22:49:28.400Z,-9.12
2019-01-05T22:52:27.636Z,-9.08
2019-01-05T22:55:14.777Z,-9.07
2019-01-05T22:58:10.753Z,-9.10
2019-01-05T23:01:03.750Z,-9.10
2019-01-05T23:04:08.919Z,-9.06
2019-01-05T23:06:53.949Z,-9.04
2019-01-05T23:09:39.757Z,-8.91
2019-01-05T23:12:35.472Z,-8.97
2019-01-05T23:15:21.949Z,-8.95
2019-01-05T23:18:14.580Z,-8.91
2019-01-05T23:21:12.770Z,-8.86
2019-01-05T23:24:00.249Z,-8.99
2019-01-05T23:26:53.123Z,-8.93
2019-01-05T23:29:47.946Z,-8.89
2019-01-05T23:32:33.893Z,-8.87
2019-01-05T23:35:29.598Z,-9.01
2019-01-05T23:38:15.085Z,-8.95
2019-01-05T23:41:01.173Z,-9.00
2019-01-05T23:44:00.048Z,-9.10
2019-01-05T23:46:57.091Z,-9.17
2019-01-05T23:49:42.817Z,-9.29
2019-01-05T23:52:28.685Z,-9.34
2019-01-05T23:55:30.634Z,-9.45
2019-01-05T23:59:02.174Z,-9.52
